createdAt,value
2023-04-17T00:00:34.285Z,101735.31
2023-04-17T00:03:01.669Z,101742.81
2023-04-17T00:05:28.955Z,101734.13
2023-04-17T00:07:57.085Z,101743.31
2023-04-17T00:10:23.683Z,101739.59
2023-04-17T00:12:50.186Z,101740.25
2023-04-17T00:15:16.860Z,101729.28
2023-04-17T00:17:43.443Z,101735.28
2023-04-17T00:20:10.807Z,101739.50
2023-04-17T00:22:38.343Z,101739.00
2023-04-17T00:25:05.445Z,101734.69
2023-04-17T00:27:32.122Z,101730.16
2023-04-17T00:29:58.793Z,101732.91
2023-04-17T00:32:25.406Z,101731.72
2023-04-17T00:34:54.391Z,101729.09
2023-04-17T00:37:22.252Z,101719.69
2023-04-17T00:39:48.812Z,101726.69
2023-04-17T00:42:15.428Z,101727.50
2023-04-17T00:44:42.000Z,101731.28
2023-04-17T00:47:08.554Z,101726.28
2023-04-17T00:49:35.847Z,101726.06
2023-04-17T00:52:02.711Z,101727.66
2023-04-17T00:54:29.790Z,101730.53
2023-04-17T00:56:57.623Z,101728.28
2023-04-17T00:59:28.444Z,101727.84
2023-04-17T01:01:55.341Z,101729.31
2023-04-17T01:04:22.371Z,101727.66
2023-04-17T01:06:49.233Z,101728.56
2023-04-17T01:09:15.832Z,101727.72
2023-04-17T01:11:42.435Z,101733.75
2023-04-17T01:14:09.126Z,101724.00
2023-04-17T01:16:40.063Z,101725.66
2023-04-17T01:19:08.612Z,101732.75
2023-04-17T01:21:35.348Z,101723.34
2023-04-17T01:24:03.453Z,101727.41
2023-04-17T01:26:32.705Z,101730.31
2023-04-17T01:29:00.175Z,101729.28
2023-04-17T01:31:29.327Z,101722.56
2023-04-17T01:33:56.090Z,101732.38
2023-04-17T01:36:22.653Z,101730.00
2023-04-17T01:38:49.273Z,101736.66
2023-04-17T01:41:15.882Z,101731.78
2023-04-17T01:43:44.726Z,101739.22
2023-04-17T01:46:12.014Z,101741.81
2023-04-17T01:48:39.059Z,101745.13
2023-04-17T01:51:06.156Z,101739.03
2023-04-17T01:53:34.244Z,101747.25
2023-04-17T01:56:01.795Z,101742.81
2023-04-17T01:58:29.842Z,101745.28
2023-04-17T02:00:57.338Z,101750.06
2023-04-17T02:03:26.660Z,101746.63
2023-04-17T02:05:53.653Z,101752.97
2023-04-17T02:08:20.605Z,101751.47
2023-04-17T02:10:47.317Z,101756.00
2023-04-17T02:13:13.938Z,101752.03
2023-04-17T02:15:41.620Z,101752.34
2023-04-17T02:18:09.269Z,101747.19
2023-04-17T02:20:37.183Z,101750.03
2023-04-17T02:23:05.694Z,101749.31
2023-04-17T02:25:33.653Z,101750.38
2023-04-17T02:28:00.354Z,101749.47
2023-04-17T02:30:27.797Z,101742.41
2023-04-17T02:32:56.494Z,101743.00
2023-04-17T02:35:26.233Z,101739.88
2023-04-17T02:37:53.453Z,101747.38
2023-04-17T02:40:22.732Z,101739.34
2023-04-17T02:42:53.531Z,101736.72
2023-04-17T02:45:20.335Z,101739.66
2023-04-17T02:47:48.508Z,101745.75
2023-04-17T02:50:15.462Z,101740.22
2023-04-17T02:52:55.267Z,101738.16
2023-04-17T02:55:22.306Z,101741.59
2023-04-17T02:57:49.000Z,101741.81
2023-04-17T03:00:16.378Z,101745.47
2023-04-17T03:02:43.231Z,101745.59
2023-04-17T03:05:11.624Z,101745.44
2023-04-17T03:07:38.303Z,101747.66
2023-04-17T03:10:06.276Z,101749.50
2023-04-17T03:12:33.082Z,101741.06
2023-04-17T03:15:00.774Z,101749.72
2023-04-17T03:17:27.436Z,101755.19
2023-04-17T03:19:54.159Z,101752.44
2023-04-17T03:22:20.913Z,101754.91
2023-04-17T03:24:48.229Z,101762.88
2023-04-17T03:27:14.897Z,101750.84
2023-04-17T03:29:42.294Z,101758.78
2023-04-17T03:32:09.555Z,101760.09
2023-04-17T03:34:36.176Z,101762.94
2023-04-17T03:37:02.744Z,101755.91
2023-04-17T03:39:31.048Z,101760.16
2023-04-17T03:41:57.666Z,101755.13
2023-04-17T03:44:24.191Z,101758.28
2023-04-17T03:46:50.784Z,101758.56
2023-04-17T03:49:17.513Z,101755.38
2023-04-17T03:51:44.332Z,101761.38
2023-04-17T03:54:16.799Z,101764.94
2023-04-17T03:56:45.779Z,101766.72
2023-04-17T03:59:13.628Z,101762.88
2023-04-17T04:01:44.278Z,101759.69
2023-04-17T04:04:17.544Z,101760.56
2023-04-17T04:06:44.991Z,101762.28
2023-04-17T04:09:15.091Z,101766.59
2023-04-17T04:11:42.452Z,101773.44
2023-04-17T04:14:09.114Z,101767.41
2023-04-17T04:16:37.182Z,101769.06
2023-04-17T04:19:12.074Z,101773.06
2023-04-17T04:21:38.994Z,101774.84
2023-04-17T04:24:08.587Z,101778.75
2023-04-17T04:26:37.820Z,101782.69
2023-04-17T04:29:04.492Z,101786.06
2023-04-17T04:32:09.611Z,101782.09
2023-04-17T04:34:41.896Z,101774.44
2023-04-17T04:37:08.553Z,101782.34
2023-04-17T04:39:43.728Z,101787.09
2023-04-17T04:42:21.792Z,101785.28
2023-04-17T04:45:09.754Z,101789.53
2023-04-17T04:47:36.472Z,101792.44
2023-04-17T04:50:03.368Z,101796.44
2023-04-17T04:52:30.994Z,101793.31
2023-04-17T04:55:01.769Z,101797.81
2023-04-17T04:57:30.558Z,101795.91
2023-04-17T05:00:00.210Z,101801.19
2023-04-17T05:02:32.597Z,101808.50
2023-04-17T05:05:00.710Z,101806.63
2023-04-17T05:07:30.167Z,101807.88
2023-04-17T05:09:57.002Z,101810.22
2023-04-17T05:12:24.165Z,101816.16
2023-04-17T05:14:50.804Z,101813.84
2023-04-17T05:17:19.470Z,101813.47
2023-04-17T05:19:46.093Z,101815.63
2023-04-17T05:22:13.540Z,101817.19
2023-04-17T05:24:56.311Z,101827.72
2023-04-17T05:27:22.875Z,101827.06
2023-04-17T05:29:49.491Z,101834.25
2023-04-17T05:32:16.831Z,101833.16
2023-04-17T05:34:50.605Z,101834.81
2023-04-17T05:37:20.786Z,101843.69
2023-04-17T05:39:47.417Z,101841.78
2023-04-17T05:42:14.005Z,101844.84
2023-04-17T05:44:40.627Z,101845.09
2023-04-17T05:47:07.690Z,101854.94
2023-04-17T05:49:34.387Z,101852.44
2023-04-17T05:52:01.100Z,101854.53
2023-04-17T05:54:30.268Z,101859.59
2023-04-17T05:56:57.714Z,101867.44
2023-04-17T05:59:25.252Z,101865.09
2023-04-17T06:01:52.502Z,101871.75
2023-04-17T06:04:21.864Z,101871.38
2023-04-17T06:06:49.965Z,101867.78
2023-04-17T06:09:16.951Z,101873.56
2023-04-17T06:11:43.527Z,101871.03
2023-04-17T06:14:10.319Z,101867.66
2023-04-17T06:16:38.234Z,101872.59
2023-04-17T06:19:04.842Z,101868.06
2023-04-17T06:21:32.144Z,101874.91
2023-04-17T06:24:00.499Z,101881.81
2023-04-17T06:26:27.060Z,101878.13
2023-04-17T06:28:54.707Z,101874.59
2023-04-17T06:31:23.068Z,101874.91
2023-04-17T06:33:50.779Z,101881.34
2023-04-17T06:36:20.062Z,101885.84
2023-04-17T06:38:48.933Z,101880.00
2023-04-17T06:41:17.551Z,101883.59
2023-04-17T06:43:44.478Z,101888.25
2023-04-17T06:46:14.309Z,101886.72
2023-04-17T06:48:40.948Z,101897.56
2023-04-17T06:51:07.556Z,101890.03
2023-04-17T06:53:34.124Z,101895.25
2023-04-17T06:56:00.744Z,101893.41
2023-04-17T06:58:27.285Z,101913.78
2023-04-17T07:00:53.930Z,101901.09
2023-04-17T07:03:20.733Z,101898.72
2023-04-17T07:05:47.559Z,101909.31
2023-04-17T07:08:15.839Z,101907.69
2023-04-17T07:10:42.508Z,101910.03
2023-04-17T07:13:09.033Z,101918.84
2023-04-17T07:15:35.696Z,101918.50
2023-04-17T07:18:02.403Z,101920.03
2023-04-17T07:20:29.121Z,101918.25
2023-04-17T07:22:57.449Z,101924.41
2023-04-17T07:25:24.311Z,101923.31
2023-04-17T07:27:51.232Z,101921.94
2023-04-17T07:30:17.868Z,101931.19
2023-04-17T07:32:44.631Z,101929.03
2023-04-17T07:35:14.116Z,101932.97
2023-04-17T07:37:41.181Z,101927.38
2023-04-17T07:40:09.846Z,101932.13
2023-04-17T07:42:37.131Z,101925.47
2023-04-17T07:45:05.209Z,101942.59
2023-04-17T07:47:31.891Z,101923.00
2023-04-17T07:49:58.449Z,101934.13
2023-04-17T07:52:25.058Z,101935.91
2023-04-17T07:54:51.649Z,101928.09
2023-04-17T07:57:18.984Z,101927.47
2023-04-17T07:59:45.864Z,101926.22
2023-04-17T08:02:12.614Z,101927.16
2023-04-17T08:04:40.299Z,101929.97
2023-04-17T08:07:10.471Z,101933.50
2023-04-17T08:09:37.390Z,101929.47
2023-04-17T08:12:04.280Z,101936.97
2023-04-17T08:14:30.986Z,101936.91
2023-04-17T08:16:58.327Z,101935.75
2023-04-17T08:19:25.021Z,101942.66
2023-04-17T08:22:00.410Z,101945.06
2023-04-17T08:24:27.348Z,101940.75
2023-04-17T08:26:53.932Z,101945.50
2023-04-17T08:29:20.589Z,101953.63
2023-04-17T08:31:47.189Z,101947.94
2023-04-17T08:34:15.558Z,101952.31
2023-04-17T08:36:43.127Z,101951.19
2023-04-17T08:39:12.211Z,101963.13
2023-04-17T08:41:49.037Z,101960.31
2023-04-17T08:44:20.656Z,101956.81
2023-04-17T08:46:47.602Z,101956.84
2023-04-17T08:49:14.935Z,101965.03
2023-04-17T08:51:42.519Z,101970.03
2023-04-17T08:54:09.074Z,101966.69
2023-04-17T08:56:36.421Z,101962.22
2023-04-17T08:59:03.043Z,101968.19
2023-04-17T09:01:30.012Z,101961.13
2023-04-17T09:03:59.644Z,101968.72
2023-04-17T09:06:27.480Z,101964.84
2023-04-17T09:09:04.898Z,101963.03
2023-04-17T09:11:31.537Z,101978.47
2023-04-17T09:13:58.118Z,101976.63
2023-04-17T09:16:25.679Z,101970.44
2023-04-17T09:19:05.638Z,101973.84
2023-04-17T09:21:32.485Z,101976.03
2023-04-17T09:23:59.694Z,101976.91
2023-04-17T09:26:27.728Z,101974.03
2023-04-17T09:29:10.889Z,101977.63
2023-04-17T09:31:39.471Z,101970.75
2023-04-17T09:34:13.958Z,101966.84
2023-04-17T09:36:42.679Z,101974.53
2023-04-17T09:39:26.132Z,101967.53
2023-04-17T09:42:06.283Z,101975.56
2023-04-17T09:44:36.285Z,101983.63
2023-04-17T09:47:04.777Z,101978.50
2023-04-17T09:49:42.099Z,101981.81
2023-04-17T09:52:08.951Z,101978.09
2023-04-17T09:54:39.064Z,101983.72
2023-04-17T09:57:10.185Z,101985.38
2023-04-17T09:59:41.832Z,101981.94
2023-04-17T10:02:09.531Z,101981.94
2023-04-17T10:04:39.398Z,101983.41
2023-04-17T10:07:06.467Z,101983.13
2023-04-17T10:09:33.108Z,101975.00
2023-04-17T10:12:02.435Z,101980.19
2023-04-17T10:14:37.400Z,101975.88
2023-04-17T10:17:31.517Z,101980.22
2023-04-17T10:20:17.687Z,101984.03
2023-04-17T10:22:44.986Z,101971.25
2023-04-17T10:25:14.505Z,101977.19
2023-04-17T10:27:41.227Z,101975.75
2023-04-17T10:30:10.247Z,101979.59
2023-04-17T10:32:37.058Z,101968.41
2023-04-17T10:35:16.010Z,101964.09
2023-04-17T10:37:48.673Z,101964.84
2023-04-17T10:40:29.192Z,101960.16
2023-04-17T10:43:05.085Z,101958.97
2023-04-17T10:45:59.793Z,101965.03
2023-04-17T10:48:34.880Z,101954.19
2023-04-17T10:51:21.483Z,101955.13
2023-04-17T10:53:55.322Z,101952.16
2023-04-17T10:56:30.842Z,101950.59
2023-04-17T10:59:30.013Z,101955.19
2023-04-17T11:02:00.721Z,101949.91
2023-04-17T11:04:29.442Z,101944.56
2023-04-17T11:06:56.214Z,101940.94
2023-04-17T11:09:28.137Z,101943.59
2023-04-17T11:11:58.013Z,101945.00
2023-04-17T11:14:26.597Z,101942.25
2023-04-17T11:16:53.222Z,101944.34
2023-04-17T11:19:22.833Z,101936.69
2023-04-17T11:21:52.077Z,101935.25
2023-04-17T11:24:29.615Z,101942.50
2023-04-17T11:26:59.597Z,101933.44
2023-04-17T11:29:27.147Z,101940.31
2023-04-17T11:31:56.338Z,101934.28
2023-04-17T11:34:25.178Z,101940.50
2023-04-17T11:36:53.587Z,101938.47
2023-04-17T11:39:21.757Z,101943.81
2023-04-17T11:41:49.438Z,101936.31
2023-04-17T11:44:18.494Z,101935.06
2023-04-17T11:46:51.747Z,101942.59
2023-04-17T11:49:30.174Z,101928.53
2023-04-17T11:51:59.130Z,101933.78
2023-04-17T11:54:29.995Z,101933.81
2023-04-17T11:57:13.675Z,101933.25
2023-04-17T11:59:42.265Z,101937.84
2023-04-17T12:02:09.830Z,101939.53
2023-04-17T12:04:38.252Z,101937.25
2023-04-17T12:07:06.251Z,101934.28
2023-04-17T12:09:34.188Z,101938.38
2023-04-17T12:12:08.147Z,101935.13
2023-04-17T12:14:35.183Z,101942.56
2023-04-17T12:17:02.408Z,101943.81
2023-04-17T12:19:29.847Z,101941.66
2023-04-17T12:21:56.767Z,101939.28
2023-04-17T12:24:24.976Z,101930.75
2023-04-17T12:26:52.920Z,101937.34
2023-04-17T12:29:26.563Z,101936.31
2023-04-17T12:32:03.715Z,101925.75
2023-04-17T12:34:30.817Z,101926.44
2023-04-17T12:36:57.349Z,101924.94
2023-04-17T12:39:24.106Z,101925.81
2023-04-17T12:41:50.655Z,101926.09
2023-04-17T12:44:17.190Z,101925.88
2023-04-17T12:46:43.762Z,101923.44
2023-04-17T12:49:10.543Z,101925.19
2023-04-17T12:51:37.964Z,101925.41
2023-04-17T12:54:04.912Z,101923.63
2023-04-17T12:56:31.866Z,101929.66
2023-04-17T12:59:00.576Z,101917.53
2023-04-17T13:01:28.799Z,101917.97
2023-04-17T13:03:55.579Z,101914.41
2023-04-17T13:06:22.442Z,101922.09
2023-04-17T13:08:48.991Z,101906.25
2023-04-17T13:11:16.287Z,101921.44
2023-04-17T13:13:42.811Z,101917.59
2023-04-17T13:16:10.414Z,101913.88
2023-04-17T13:18:37.507Z,101910.41
2023-04-17T13:21:04.139Z,101917.22
2023-04-17T13:23:30.811Z,101907.00
2023-04-17T13:25:57.363Z,101903.94
2023-04-17T13:28:23.877Z,101901.31
2023-04-17T13:30:50.553Z,101909.22
2023-04-17T13:33:17.300Z,101912.13
2023-04-17T13:35:43.870Z,101910.34
2023-04-17T13:38:10.341Z,101911.16
2023-04-17T13:40:38.668Z,101899.28
2023-04-17T13:43:06.650Z,101894.88
2023-04-17T13:45:33.378Z,101898.91
2023-04-17T13:48:00.402Z,101891.75
2023-04-17T13:50:27.450Z,101884.88
2023-04-17T13:52:54.088Z,101884.16
2023-04-17T13:55:20.704Z,101867.75
2023-04-17T13:57:47.294Z,101879.19
2023-04-17T14:00:14.619Z,101876.44
2023-04-17T14:02:41.760Z,101873.28
2023-04-17T14:05:09.091Z,101874.13
2023-04-17T14:07:35.762Z,101872.38
2023-04-17T14:10:02.398Z,101868.59
2023-04-17T14:12:28.962Z,101857.81
2023-04-17T14:14:57.011Z,101859.41
2023-04-17T14:17:24.968Z,101854.31
2023-04-17T14:19:52.449Z,101858.78
2023-04-17T14:22:20.005Z,101867.59
2023-04-17T14:24:46.506Z,101859.91
2023-04-17T14:27:13.254Z,101846.97
2023-04-17T14:29:39.860Z,101852.84
2023-04-17T14:32:06.427Z,101850.53
2023-04-17T14:34:32.918Z,101841.53
2023-04-17T14:36:59.499Z,101840.28
2023-04-17T14:39:26.073Z,101849.31
2023-04-17T14:41:52.699Z,101841.72
2023-04-17T14:44:20.374Z,101834.81
2023-04-17T14:46:47.635Z,101840.47
2023-04-17T14:49:14.468Z,101836.81
2023-04-17T14:51:41.203Z,101833.28
2023-04-17T14:54:10.672Z,101834.97
2023-04-17T14:56:37.140Z,101830.72
2023-04-17T14:59:05.136Z,101833.34
2023-04-17T15:01:31.761Z,101828.34
2023-04-17T15:03:58.878Z,101824.84
2023-04-17T15:06:26.144Z,101822.31
2023-04-17T15:08:52.684Z,101822.13
2023-04-17T15:11:19.228Z,101827.53
2023-04-17T15:13:45.802Z,101816.97
2023-04-17T15:16:12.448Z,101825.34
2023-04-17T15:18:39.400Z,101815.72
2023-04-17T15:21:06.298Z,101804.69
2023-04-17T15:23:34.525Z,101808.16
2023-04-17T15:26:01.356Z,101805.78
2023-04-17T15:28:28.116Z,101810.97
2023-04-17T15:30:55.709Z,101808.06
2023-04-17T15:33:22.293Z,101806.25
2023-04-17T15:35:54.793Z,101808.03
2023-04-17T15:38:21.413Z,101804.59
2023-04-17T15:40:47.984Z,101800.25
2023-04-17T15:43:14.669Z,101807.91
2023-04-17T15:45:41.399Z,101798.81
2023-04-17T15:48:08.118Z,101811.41
2023-04-17T15:50:35.476Z,101797.88
2023-04-17T15:53:02.202Z,101811.28
2023-04-17T15:55:28.804Z,101798.28
2023-04-17T15:57:55.917Z,101795.91
2023-04-17T16:00:22.720Z,101798.44
2023-04-17T16:02:49.386Z,101794.03
2023-04-17T16:05:16.938Z,101803.69
2023-04-17T16:07:44.366Z,101796.63
2023-04-17T16:10:14.554Z,101794.91
2023-04-17T16:12:43.134Z,101791.50
2023-04-17T16:15:17.665Z,101791.59
2023-04-17T16:17:45.423Z,101794.16
2023-04-17T16:20:12.478Z,101795.63
2023-04-17T16:22:39.049Z,101800.00
2023-04-17T16:25:06.398Z,101799.59
2023-04-17T16:27:33.361Z,101796.63
2023-04-17T16:30:00.092Z,101800.00
2023-04-17T16:32:27.287Z,101789.53
2023-04-17T16:34:53.908Z,101791.28
2023-04-17T16:37:20.586Z,101790.53
2023-04-17T16:39:47.317Z,101792.22
2023-04-17T16:42:14.461Z,101786.22
2023-04-17T16:44:41.096Z,101787.91
2023-04-17T16:47:13.380Z,101780.28
2023-04-17T16:49:41.047Z,101778.78
2023-04-17T16:52:07.700Z,101781.47
2023-04-17T16:54:34.722Z,101778.78
2023-04-17T16:57:01.382Z,101775.19
2023-04-17T16:59:27.891Z,101771.41
2023-04-17T17:01:54.540Z,101774.50
2023-04-17T17:04:21.161Z,101783.34
2023-04-17T17:06:47.836Z,101779.88
2023-04-17T17:09:14.580Z,101779.88
2023-04-17T17:11:41.253Z,101781.59
2023-04-17T17:14:07.789Z,101778.22
2023-04-17T17:16:34.372Z,101781.72
2023-04-17T17:19:00.972Z,101782.63
2023-04-17T17:21:28.584Z,101785.72
2023-04-17T17:23:55.207Z,101785.00
2023-04-17T17:26:21.815Z,101795.44
2023-04-17T17:28:51.233Z,101790.97
2023-04-17T17:31:18.216Z,101795.22
2023-04-17T17:33:49.845Z,101790.19
2023-04-17T17:36:16.749Z,101794.50
2023-04-17T17:38:44.032Z,101796.28
2023-04-17T17:41:10.683Z,101800.50
2023-04-17T17:43:37.237Z,101802.06
2023-04-17T17:46:03.861Z,101793.94
2023-04-17T17:48:30.524Z,101796.94
2023-04-17T17:50:57.578Z,101804.44
2023-04-17T17:53:26.679Z,101807.19
2023-04-17T17:55:54.642Z,101804.59
2023-04-17T17:58:21.811Z,101807.31
2023-04-17T18:00:49.234Z,101800.69
2023-04-17T18:03:16.719Z,101806.53
2023-04-17T18:05:44.352Z,101804.94
2023-04-17T18:08:10.923Z,101809.91
2023-04-17T18:10:37.521Z,101802.56
2023-04-17T18:13:04.684Z,101813.22
2023-04-17T18:15:31.785Z,101813.22
2023-04-17T18:17:58.452Z,101809.41
2023-04-17T18:20:25.006Z,101811.91
2023-04-17T18:22:51.994Z,101811.16
2023-04-17T18:25:18.705Z,101813.72
2023-04-17T18:27:45.231Z,101817.59
2023-04-17T18:30:12.300Z,101817.56
2023-04-17T18:32:38.921Z,101823.28
2023-04-17T18:35:06.229Z,101825.50
2023-04-17T18:37:32.944Z,101828.78
2023-04-17T18:39:59.526Z,101827.00
2023-04-17T18:42:26.055Z,101827.94
2023-04-17T18:44:52.581Z,101834.31
2023-04-17T18:47:19.182Z,101844.66
2023-04-17T18:49:45.767Z,101842.06
2023-04-17T18:52:12.374Z,101848.09
2023-04-17T18:54:38.957Z,101854.00
2023-04-17T18:57:05.574Z,101852.50
2023-04-17T18:59:32.126Z,101859.47
2023-04-17T19:01:58.725Z,101866.84
2023-04-17T19:04:25.940Z,101870.72
2023-04-17T19:06:52.462Z,101876.44
2023-04-17T19:09:19.095Z,101866.28
2023-04-17T19:11:45.927Z,101866.28
2023-04-17T19:14:12.744Z,101864.16
2023-04-17T19:16:39.579Z,101866.53
2023-04-17T19:19:06.369Z,101869.06
2023-04-17T19:21:33.108Z,101866.56
2023-04-17T19:23:59.662Z,101866.50
2023-04-17T19:26:26.203Z,101871.75
2023-04-17T19:28:52.856Z,101870.66
2023-04-17T19:31:19.390Z,101876.59
2023-04-17T19:33:46.006Z,101875.84
2023-04-17T19:36:12.536Z,101879.59
2023-04-17T19:38:39.193Z,101877.91
2023-04-17T19:41:14.676Z,101881.06
2023-04-17T19:43:42.502Z,101883.34
2023-04-17T19:46:09.534Z,101873.06
2023-04-17T19:48:36.948Z,101881.25
2023-04-17T19:51:08.047Z,101881.41
2023-04-17T19:53:36.229Z,101888.69
2023-04-17T19:56:06.306Z,101892.38
2023-04-17T19:58:34.433Z,101889.41
2023-04-17T20:01:01.534Z,101890.69
2023-04-17T20:03:29.937Z,101892.16
2023-04-17T20:05:57.381Z,101888.22
2023-04-17T20:08:24.952Z,101894.94
2023-04-17T20:10:51.562Z,101888.31
2023-04-17T20:13:18.204Z,101889.50
2023-04-17T20:15:44.721Z,101885.63
2023-04-17T20:18:11.920Z,101887.84
2023-04-17T20:20:39.061Z,101886.28
2023-04-17T20:23:05.775Z,101888.94
2023-04-17T20:25:32.449Z,101894.94
2023-04-17T20:27:59.014Z,101895.59
2023-04-17T20:30:25.698Z,101892.31
2023-04-17T20:32:52.525Z,101895.56
2023-04-17T20:35:23.544Z,101894.34
2023-04-17T20:37:51.672Z,101897.13
2023-04-17T20:40:18.978Z,101899.13
2023-04-17T20:42:46.336Z,101893.81
2023-04-17T20:45:13.009Z,101895.19
2023-04-17T20:47:46.308Z,101889.94
2023-04-17T20:50:22.012Z,101892.75
2023-04-17T20:52:48.569Z,101895.56
2023-04-17T20:55:15.307Z,101889.28
2023-04-17T20:57:41.834Z,101883.88
2023-04-17T21:00:09.064Z,101887.50
2023-04-17T21:02:35.805Z,101888.69
2023-04-17T21:05:03.986Z,101892.88
2023-04-17T21:07:30.799Z,101880.53
2023-04-17T21:09:57.341Z,101888.69
2023-04-17T21:12:23.893Z,101891.84
2023-04-17T21:14:50.506Z,101885.13
2023-04-17T21:17:17.102Z,101886.59
2023-04-17T21:19:43.677Z,101888.56
2023-04-17T21:22:11.499Z,101885.63
2023-04-17T21:24:39.323Z,101893.34
2023-04-17T21:27:05.974Z,101897.31
2023-04-17T21:29:32.530Z,101903.22
2023-04-17T21:31:59.486Z,101900.38
2023-04-17T21:34:26.265Z,101901.69
2023-04-17T21:36:54.336Z,101914.84
2023-04-17T21:39:21.827Z,101916.84
2023-04-17T21:41:48.647Z,101904.38
2023-04-17T21:44:15.501Z,101905.91
2023-04-17T21:46:45.065Z,101907.16
2023-04-17T21:49:12.045Z,101909.44
2023-04-17T21:51:38.584Z,101913.75
2023-04-17T21:54:05.250Z,101917.69
2023-04-17T21:56:31.876Z,101923.22
2023-04-17T21:58:58.430Z,101924.81
2023-04-17T22:01:25.098Z,101927.25
2023-04-17T22:03:51.795Z,101927.28
2023-04-17T22:06:18.482Z,101932.78
2023-04-17T22:08:45.137Z,101929.56
2023-04-17T22:11:11.963Z,101930.88
2023-04-17T22:13:38.641Z,101931.19
2023-04-17T22:16:06.140Z,101934.22
2023-04-17T22:18:32.708Z,101935.81
2023-04-17T22:20:59.285Z,101937.00
2023-04-17T22:23:25.849Z,101937.16
2023-04-17T22:25:52.447Z,101943.25
2023-04-17T22:28:19.276Z,101942.34
2023-04-17T22:30:50.425Z,101938.13
2023-04-17T22:33:17.024Z,101935.56
2023-04-17T22:35:43.652Z,101945.56
2023-04-17T22:38:10.980Z,101939.41
2023-04-17T22:40:38.026Z,101940.63
2023-04-17T22:43:04.556Z,101940.50
2023-04-17T22:45:31.167Z,101942.91
2023-04-17T22:47:57.842Z,101936.47
2023-04-17T22:50:24.394Z,101938.56
2023-04-17T22:52:51.232Z,101938.25
2023-04-17T22:55:17.839Z,101946.63
2023-04-17T22:57:44.562Z,101939.75
2023-04-17T23:00:11.538Z,101948.00
2023-04-17T23:02:38.190Z,101950.34
2023-04-17T23:05:06.060Z,101952.44
2023-04-17T23:07:32.862Z,101963.44
2023-04-17T23:09:59.449Z,101951.97
2023-04-17T23:12:26.034Z,101958.88
2023-04-17T23:14:52.706Z,101956.88
2023-04-17T23:17:19.290Z,101965.22
2023-04-17T23:19:46.161Z,101962.19
2023-04-17T23:22:12.720Z,101961.25
2023-04-17T23:24:39.295Z,101959.75
2023-04-17T23:27:05.958Z,101961.03
2023-04-17T23:29:32.518Z,101960.34
2023-04-17T23:31:59.155Z,101964.44
2023-04-17T23:34:27.771Z,101962.78
2023-04-17T23:36:54.330Z,101958.75
2023-04-17T23:39:20.868Z,101969.25
2023-04-17T23:41:47.820Z,101968.53
2023-04-17T23:44:14.625Z,101969.41
2023-04-17T23:46:41.451Z,101965.47
2023-04-17T23:49:08.074Z,101958.56
2023-04-17T23:51:34.955Z,101966.88
2023-04-17T23:54:01.542Z,101967.47
2023-04-17T23:56:29.983Z,101973.34
2023-04-17T23:58:57.142Z,101970.06
